Time;durP1;ratioP1;P1;durP2;ratioP2;P2;SDS_P1;SDS_P2;PMS_P1;PMS_P2;Temp;Humidity;BMP_temperature;BMP_pressure;BME280_temperature;BME280_humidity;BME280_pressure;Samples;Min_cycle;Max_cycle;Signal;HPM_P1;HPM_P2
2022/06/18 00:00:19;;;;;;;;;;;;;;;18.23;91.22;95495.25;5076911;28;1065;-50
2022/06/18 00:02:45;;;;;;;;;;;;;;;18.19;92.00;95508.34;5076500;28;970;-50
2022/06/18 00:05:12;;;;;;;;;;;;;;;18.13;92.39;95504.56;5076530;28;1028;-50
2022/06/18 00:07:40;;;;;;;;;;;;;;;18.04;92.78;95505.78;5095274;28;1213;-50
2022/06/18 00:10:07;;;;;;;;;;;;;;;17.88;92.61;95497.97;5096726;28;1060;-50
2022/06/18 00:15:20;;;;;;;;;;;;;;;17.87;91.56;95499.00;5096908;28;1063;-50
2022/06/18 00:17:46;;;;;;;;;;;;;;;17.78;92.30;95498.31;5096425;28;1004;-50
2022/06/18 00:20:13;;;;;;;;;;;;;;;17.69;91.80;95496.78;5096530;28;1295;-50
2022/06/18 00:22:41;;;;;;;;;;;;;;;17.67;91.50;95496.97;5096219;28;996;-50
2022/06/18 00:25:28;;;;;;;;;;;;;;;17.73;91.83;95493.47;5096527;28;1028;-50
2022/06/18 00:27:55;;;;;;;;;;;;;;;17.67;91.17;95496.16;5096437;28;1037;-50
2022/06/18 00:30:24;;;;;;;;;;;;;;;17.63;91.02;95489.47;5096368;28;1033;-50
2022/06/18 00:32:50;;;;;;;;;;;;;;;17.52;91.67;95497.06;5096072;28;1910;-50
2022/06/18 00:35:16;;;;;;;;;;;;;;;17.56;91.31;95492.09;5096242;28;1016;-50
2022/06/18 00:37:43;;;;;;;;;;;;;;;17.58;92.07;95489.22;5096217;28;1052;-50
2022/06/18 00:40:13;;;;;;;;;;;;;;;17.57;92.41;95496.50;5096370;28;973;-50
2022/06/18 00:42:40;;;;;;;;;;;;;;;17.46;93.12;95494.31;5096059;28;1049;-49
2022/06/18 00:45:06;;;;;;;;;;;;;;;17.35;92.13;95490.28;5096176;28;1008;-50
2022/06/18 00:47:32;;;;;;;;;;;;;;;17.45;91.73;95493.47;5095638;28;1120;-50
2022/06/18 00:50:16;;;;;;;;;;;;;;;17.36;92.36;95492.78;5096266;28;1167;-49
2022/06/18 00:53:05;;;;;;;;;;;;;;;17.51;90.82;95497.25;5095786;28;1909;-49
2022/06/18 00:55:40;;;;;;;;;;;;;;;17.50;90.78;95498.31;5095782;28;944;-50
2022/06/18 00:58:16;;;;;;;;;;;;;;;17.29;90.67;95494.59;5095689;28;1003;-50
2022/06/18 01:00:45;;;;;;;;;;;;;;;17.04;90.61;95498.72;5095946;28;1036;-50
2022/06/18 01:03:21;;;;;;;;;;;;;;;17.14;90.65;95494.66;5095773;28;1023;-49
2022/06/18 01:05:47;;;;;;;;;;;;;;;17.16;91.30;95492.59;5092354;28;1162;-49
2022/06/18 01:08:15;;;;;;;;;;;;;;;17.18;91.07;95495.94;5075350;28;1062;-49
2022/06/18 01:10:42;;;;;;;;;;;;;;;17.36;90.57;95489.25;5075256;28;1079;-49
2022/06/18 01:13:11;;;;;;;;;;;;;;;17.27;90.64;95485.03;5075108;28;1971;-50
2022/06/18 01:15:38;;;;;;;;;;;;;;;17.30;90.08;95490.00;5075418;28;942;-49
2022/06/18 01:18:05;;;;;;;;;;;;;;;17.10;90.88;95479.88;5075240;28;977;-50
2022/06/18 01:20:33;;;;;;;;;;;;;;;16.88;90.48;95478.19;5075087;28;1108;-50
2022/06/18 01:23:08;;;;;;;;;;;;;;;16.84;91.54;95485.00;5075007;28;988;-50
2022/06/18 01:25:34;;;;;;;;;;;;;;;16.71;90.72;95472.16;5075040;28;953;-50
2022/06/18 01:28:00;;;;;;;;;;;;;;;16.82;90.13;95474.41;5075063;28;1029;-50
2022/06/18 01:30:34;;;;;;;;;;;;;;;16.89;89.78;95471.78;5074925;28;1932;-50
2022/06/18 01:33:00;;;;;;;;;;;;;;;16.72;90.11;95471.97;5074935;28;1990;-50
2022/06/18 01:35:26;;;;;;;;;;;;;;;16.58;90.56;95479.13;5074853;28;989;-49
2022/06/18 01:37:52;;;;;;;;;;;;;;;16.59;91.33;95477.25;5074807;28;983;-49
2022/06/18 01:40:38;;;;;;;;;;;;;;;16.64;90.58;95480.22;5074830;28;1004;-49
2022/06/18 01:43:05;;;;;;;;;;;;;;;16.55;90.35;95474.09;5074639;28;1130;-50
2022/06/18 01:45:32;;;;;;;;;;;;;;;16.59;89.88;95478.06;5074541;28;1342;-50
2022/06/18 01:48:02;;;;;;;;;;;;;;;16.66;89.62;95477.34;5057006;28;1008;-49
2022/06/18 01:50:32;;;;;;;;;;;;;;;16.68;89.26;95475.28;5074359;28;1095;-49
2022/06/18 01:53:07;;;;;;;;;;;;;;;16.59;89.07;95478.06;5074414;28;1993;-49
2022/06/18 01:55:36;;;;;;;;;;;;;;;16.56;88.97;95478.47;5074238;28;992;-49
2022/06/18 01:58:05;;;;;;;;;;;;;;;16.42;90.09;95481.19;5074567;28;968;-49
2022/06/18 02:00:31;;;;;;;;;;;;;;;16.29;91.03;95473.78;5074194;28;1036;-49
2022/06/18 02:02:59;;;;;;;;;;;;;;;16.36;90.25;95477.38;5074298;28;1104;-50
2022/06/18 02:05:25;;;;;;;;;;;;;;;16.38;91.09;95478.88;5074201;28;1201;-49
2022/06/18 02:07:51;;;;;;;;;;;;;;;16.37;90.94;95470.94;5094490;28;1036;-49
2022/06/18 02:10:23;;;;;;;;;;;;;;;16.37;90.79;95479.06;5094447;28;1025;-49
2022/06/18 02:12:50;;;;;;;;;;;;;;;16.35;90.90;95473.00;5094006;28;1909;-49
2022/06/18 02:15:25;;;;;;;;;;;;;;;16.26;90.48;95472.28;5094204;28;1072;-49
2022/06/18 02:17:51;;;;;;;;;;;;;;;16.27;90.13;95473.13;5094328;28;1021;-49
2022/06/18 02:20:23;;;;;;;;;;;;;;;16.30;90.47;95464.66;5094326;28;990;-49
2022/06/18 02:22:50;;;;;;;;;;;;;;;16.20;90.86;95473.88;5094737;28;982;-49
2022/06/18 02:25:18;;;;;;;;;;;;;;;16.05;89.69;95478.47;5093834;28;1854;-49
2022/06/18 02:27:44;;;;;;;;;;;;;;;16.12;89.55;95473.13;5094051;28;1041;-49
2022/06/18 02:30:21;;;;;;;;;;;;;;;16.15;89.43;95473.59;5093876;28;1000;-49
2022/06/18 02:32:50;;;;;;;;;;;;;;;16.23;88.86;95472.66;5094224;28;2042;-48
2022/06/18 02:35:17;;;;;;;;;;;;;;;16.14;89.19;95469.25;5093993;28;962;-49
2022/06/18 02:37:43;;;;;;;;;;;;;;;16.23;88.40;95469.13;5094056;28;1032;-48
2022/06/18 02:40:21;;;;;;;;;;;;;;;16.09;88.83;95477.06;5093804;28;973;-48
2022/06/18 02:42:48;;;;;;;;;;;;;;;16.12;89.30;95475.84;5094136;28;978;-49
2022/06/18 02:45:14;;;;;;;;;;;;;;;16.11;88.92;95475.00;5093928;28;949;-49
2022/06/18 02:47:40;;;;;;;;;;;;;;;16.01;89.75;95474.44;5093616;28;1139;-49
2022/06/18 02:50:09;;;;;;;;;;;;;;;16.03;90.06;95464.34;5093766;28;968;-49
2022/06/18 02:52:39;;;;;;;;;;;;;;;16.25;89.38;95464.38;5093580;28;1914;-49
2022/06/18 02:55:07;;;;;;;;;;;;;;;16.19;89.35;95474.91;5093346;28;1019;-49
2022/06/18 02:57:34;;;;;;;;;;;;;;;16.18;89.11;95467.84;5093863;28;1041;-48
2022/06/18 02:59:59;;;;;;;;;;;;;;;16.19;89.15;95472.19;5093722;28;979;-49
2022/06/18 03:02:25;;;;;;;;;;;;;;;16.03;88.66;95472.41;5093712;28;1041;-49
2022/06/18 03:04:51;;;;;;;;;;;;;;;15.76;89.33;95477.44;5093429;28;1079;-49
2022/06/18 03:07:17;;;;;;;;;;;;;;;15.98;87.16;95475.66;5077525;28;1162;-49
2022/06/18 03:12:28;;;;;;;;;;;;;;;16.02;89.29;95476.13;5073185;28;1910;-49
2022/06/18 03:14:54;;;;;;;;;;;;;;;16.04;88.26;95478.66;5073340;28;1012;-49
2022/06/18 03:17:20;;;;;;;;;;;;;;;15.94;89.31;95471.66;5073297;28;1005;-49
2022/06/18 03:19:50;;;;;;;;;;;;;;;16.00;89.52;95475.47;5073040;28;1092;-49
2022/06/18 03:22:18;;;;;;;;;;;;;;;16.19;88.84;95482.16;5073160;28;1172;-49
2022/06/18 03:24:44;;;;;;;;;;;;;;;16.08;88.00;95480.75;5075433;28;950;-49
2022/06/18 03:27:11;;;;;;;;;;;;;;;16.00;89.60;95480.88;5077393;28;1046;-49
2022/06/18 03:29:37;;;;;;;;;;;;;;;15.93;88.66;95480.78;5077108;28;1029;-49
2022/06/18 03:32:03;;;;;;;;;;;;;;;16.02;87.49;95480.69;5077281;28;2001;-49
2022/06/18 03:34:29;;;;;;;;;;;;;;;16.06;89.07;95477.44;5077124;28;1045;-49
2022/06/18 03:36:56;;;;;;;;;;;;;;;16.34;88.59;95476.75;5076895;28;1069;-49
2022/06/18 03:39:23;;;;;;;;;;;;;;;16.35;88.11;95470.31;5076996;28;1045;-48
2022/06/18 03:41:49;;;;;;;;;;;;;;;16.49;88.43;95480.25;5077067;28;1052;-49
2022/06/18 03:44:16;;;;;;;;;;;;;;;16.55;87.14;95475.97;5077144;28;982;-49
2022/06/18 03:46:43;;;;;;;;;;;;;;;16.57;86.51;95482.81;5076694;28;1097;-48
2022/06/18 03:49:09;;;;;;;;;;;;;;;16.57;88.86;95485.53;5076936;28;1071;-49
2022/06/18 03:51:35;;;;;;;;;;;;;;;16.57;86.57;95490.09;5076562;28;966;-49
2022/06/18 03:54:01;;;;;;;;;;;;;;;16.76;86.59;95489.47;5076540;28;1997;-49
2022/06/18 03:56:29;;;;;;;;;;;;;;;17.04;85.54;95487.94;5076541;28;1072;-49
2022/06/18 03:58:55;;;;;;;;;;;;;;;17.31;82.46;95484.41;5077136;28;1049;-49
2022/06/18 04:01:25;;;;;;;;;;;;;;;17.36;84.47;95491.97;5076537;28;1008;-49
2022/06/18 04:03:51;;;;;;;;;;;;;;;17.36;85.15;95486.56;5076716;28;981;-49
2022/06/18 04:06:17;;;;;;;;;;;;;;;17.43;85.90;95489.28;5083827;28;1170;-50
2022/06/18 04:08:44;;;;;;;;;;;;;;;17.42;86.41;95482.25;5096948;28;977;-50
2022/06/18 04:11:11;;;;;;;;;;;;;;;17.63;85.98;95481.34;5096837;28;954;-49
2022/06/18 04:13:37;;;;;;;;;;;;;;;17.73;84.57;95482.66;5096752;28;1910;-49
2022/06/18 04:16:03;;;;;;;;;;;;;;;17.91;84.53;95492.19;5096628;28;1149;-49
2022/06/18 04:18:29;;;;;;;;;;;;;;;17.99;85.29;95486.63;5096502;28;1012;-49
2022/06/18 04:20:56;;;;;;;;;;;;;;;18.16;82.70;95494.41;5096472;28;966;-49
2022/06/18 04:23:22;;;;;;;;;;;;;;;18.26;82.61;95489.47;5096472;28;960;-48
2022/06/18 04:25:48;;;;;;;;;;;;;;;18.34;82.25;95492.00;5096491;28;1103;-49
2022/06/18 04:28:15;;;;;;;;;;;;;;;18.36;82.18;95494.50;5096415;28;1049;-49
2022/06/18 04:30:41;;;;;;;;;;;;;;;18.46;83.34;95494.97;5096482;28;969;-49
2022/06/18 04:33:08;;;;;;;;;;;;;;;18.66;79.92;95495.03;5096211;28;1995;-49
2022/06/18 04:35:33;;;;;;;;;;;;;;;18.73;81.40;95488.59;5095679;28;1040;-48
2022/06/18 04:38:00;;;;;;;;;;;;;;;18.84;78.52;95494.53;5096268;28;1032;-50
2022/06/18 04:40:31;;;;;;;;;;;;;;;18.96;78.88;95486.63;5096294;28;1045;-50
2022/06/18 04:42:58;;;;;;;;;;;;;;;19.10;80.29;95485.59;5096056;28;1075;-50
2022/06/18 04:45:24;;;;;;;;;;;;;;;19.25;80.92;95483.53;5096022;28;1238;-49
2022/06/18 04:47:50;;;;;;;;;;;;;;;19.39;79.53;95487.09;5095984;28;1094;-48
2022/06/18 04:50:18;;;;;;;;;;;;;;;19.53;76.96;95489.81;5096018;28;965;-48
2022/06/18 04:52:44;;;;;;;;;;;;;;;19.55;76.48;95493.16;5095914;28;1931;-49
2022/06/18 04:55:10;;;;;;;;;;;;;;;19.62;73.67;95502.13;5095924;28;1020;-49
2022/06/18 04:57:36;;;;;;;;;;;;;;;19.64;75.52;95498.16;5095782;28;1025;-49
2022/06/18 05:00:04;;;;;;;;;;;;;;;19.76;76.76;95508.41;5095865;28;1028;-48
2022/06/18 05:02:30;;;;;;;;;;;;;;;19.98;77.32;95509.84;5095577;28;1072;-50
2022/06/18 05:04:56;;;;;;;;;;;;;;;20.04;76.75;95517.13;5095760;28;1051;-50
2022/06/18 05:07:22;;;;;;;;;;;;;;;19.99;76.08;95511.50;5079002;28;1157;-50
2022/06/18 05:09:48;;;;;;;;;;;;;;;20.08;75.01;95514.81;5075572;28;970;-49
2022/06/18 05:12:15;;;;;;;;;;;;;;;20.14;73.79;95521.28;5075143;28;1988;-49
2022/06/18 05:14:42;;;;;;;;;;;;;;;20.21;76.06;95517.50;5075304;28;934;-49
2022/06/18 05:17:16;;;;;;;;;;;;;;;20.08;72.06;95521.09;5075031;28;996;-49
2022/06/18 05:19:42;;;;;;;;;;;;;;;20.13;74.21;95525.03;5075428;28;970;-49
2022/06/18 05:22:08;;;;;;;;;;;;;;;20.18;73.71;95527.97;5075225;28;1045;-49
2022/06/18 05:24:35;;;;;;;;;;;;;;;20.30;76.20;95523.56;5075046;28;1029;-49
2022/06/18 05:27:01;;;;;;;;;;;;;;;20.29;77.41;95530.03;5074916;28;1158;-49
2022/06/18 05:29:27;;;;;;;;;;;;;;;20.40;72.25;95528.53;5074932;28;1951;-49
2022/06/18 05:31:54;;;;;;;;;;;;;;;20.58;74.35;95530.56;5074774;28;966;-49
2022/06/18 05:34:20;;;;;;;;;;;;;;;20.68;73.88;95531.00;5074976;28;1934;-49
2022/06/18 05:36:47;;;;;;;;;;;;;;;20.84;73.29;95527.75;5075042;28;1023;-49
2022/06/18 05:39:14;;;;;;;;;;;;;;;21.08;73.60;95528.09;5074832;28;977;-49
2022/06/18 05:41:40;;;;;;;;;;;;;;;21.06;70.06;95533.72;5074652;28;1029;-49
2022/06/18 05:44:06;;;;;;;;;;;;;;;21.16;71.33;95530.53;5074660;28;985;-49
2022/06/18 05:46:32;;;;;;;;;;;;;;;21.38;71.87;95530.19;5073594;28;1318;-49
2022/06/18 05:48:58;;;;;;;;;;;;;;;21.45;69.89;95531.00;5074604;28;1016;-49
2022/06/18 05:51:25;;;;;;;;;;;;;;;21.63;68.74;95528.38;5074543;28;1196;-49
2022/06/18 05:53:51;;;;;;;;;;;;;;;21.75;68.52;95523.03;5074255;28;2009;-49
2022/06/18 05:56:17;;;;;;;;;;;;;;;21.78;68.69;95530.78;5074473;28;1013;-49
2022/06/18 05:58:43;;;;;;;;;;;;;;;22.01;69.17;95535.59;5074270;28;970;-49
2022/06/18 06:01:09;;;;;;;;;;;;;;;22.10;67.17;95538.88;5074377;28;1037;-49
2022/06/18 06:03:35;;;;;;;;;;;;;;;22.32;68.63;95536.56;5074463;28;961;-49
2022/06/18 06:06:02;;;;;;;;;;;;;;;22.20;69.01;95538.34;5079798;28;1182;-49
2022/06/18 06:08:28;;;;;;;;;;;;;;;22.18;67.54;95533.13;5094510;28;1034;-49
2022/06/18 06:13:39;;;;;;;;;;;;;;;22.39;66.34;95542.78;5094067;28;1988;-49
2022/06/18 06:16:05;;;;;;;;;;;;;;;22.63;66.47;95536.66;5094732;28;1086;-49
2022/06/18 06:18:31;;;;;;;;;;;;;;;22.64;63.89;95535.63;5094075;28;1079;-49
2022/06/18 06:20:59;;;;;;;;;;;;;;;22.72;64.97;95540.75;5094458;28;964;-49
2022/06/18 06:23:25;;;;;;;;;;;;;;;22.87;63.15;95529.47;5093943;28;972;-49
2022/06/18 06:25:52;;;;;;;;;;;;;;;23.02;64.79;95534.53;5094191;28;1076;-50
2022/06/18 06:28:20;;;;;;;;;;;;;;;23.11;64.77;95530.47;5093859;28;1044;-49
2022/06/18 06:30:46;;;;;;;;;;;;;;;23.11;63.28;95533.19;5094090;28;1065;-49
2022/06/18 06:33:12;;;;;;;;;;;;;;;23.04;62.42;95530.53;5094063;28;1910;-49
2022/06/18 06:35:38;;;;;;;;;;;;;;;23.27;61.55;95526.25;5093984;28;1025;-50
2022/06/18 06:38:05;;;;;;;;;;;;;;;23.34;60.37;95526.97;5094053;28;1049;-50
2022/06/18 06:40:33;;;;;;;;;;;;;;;23.47;61.39;95532.25;5093899;28;1080;-50
2022/06/18 06:43:00;;;;;;;;;;;;;;;23.55;59.28;95523.72;5093852;28;1107;-50
2022/06/18 06:48:48;;;;;;;;;;;;;;;23.75;61.60;95523.41;3048162;28;2083;-51
2022/06/18 06:51:16;;;;;;;;;;;;;;;23.91;57.96;95521.09;5093895;28;1045;-51
2022/06/18 06:53:42;;;;;;;;;;;;;;;23.94;59.25;95516.00;5093481;28;1905;-50
2022/06/18 06:58:56;;;;;;;;;;;;;;;23.97;56.10;95503.75;5093546;28;1004;-50
2022/06/18 07:01:23;;;;;;;;;;;;;;;23.83;58.06;95508.63;5093989;28;1025;-51
2022/06/18 07:03:49;;;;;;;;;;;;;;;23.73;57.86;95506.44;5093943;28;1030;-51
2022/06/18 07:06:16;;;;;;;;;;;;;;;23.73;56.23;95508.31;5086308;28;1154;-51
2022/06/18 07:08:43;;;;;;;;;;;;;;;23.84;55.66;95503.97;5073168;28;1069;-51
2022/06/18 07:11:10;;;;;;;;;;;;;;;23.86;57.37;95516.31;5073467;28;1025;-52
2022/06/18 07:13:36;;;;;;;;;;;;;;;23.88;59.00;95505.16;5073188;28;1981;-50
2022/06/18 07:16:02;;;;;;;;;;;;;;;24.04;54.99;95503.66;5073276;28;1034;-50
2022/06/18 07:18:31;;;;;;;;;;;;;;;24.15;56.19;95511.84;5073145;28;1045;-50
2022/06/18 07:20:57;;;;;;;;;;;;;;;24.19;54.53;95501.28;5073360;28;1037;-50
2022/06/18 07:23:23;;;;;;;;;;;;;;;24.22;58.49;95502.69;5073147;28;1014;-50
2022/06/18 07:25:49;;;;;;;;;;;;;;;24.29;55.74;95506.94;5073081;28;1057;-50
2022/06/18 07:28:16;;;;;;;;;;;;;;;24.48;57.86;95504.91;5073284;28;1030;-50
2022/06/18 07:30:42;;;;;;;;;;;;;;;24.62;58.57;95500.03;5072877;28;1096;-50
2022/06/18 07:33:12;;;;;;;;;;;;;;;24.75;57.63;95499.75;5073031;28;1906;-50
2022/06/18 07:35:38;;;;;;;;;;;;;;;24.75;54.06;95494.31;5072819;28;1108;-50
2022/06/18 07:38:04;;;;;;;;;;;;;;;24.68;53.05;95496.38;5073240;28;993;-51
2022/06/18 07:40:34;;;;;;;;;;;;;;;24.75;55.11;95493.47;5072758;28;1083;-51
2022/06/18 07:43:01;;;;;;;;;;;;;;;24.83;56.57;95492.25;5073081;28;1016;-51
2022/06/18 07:45:27;;;;;;;;;;;;;;;24.78;57.63;95495.75;5072813;28;1080;-51
2022/06/18 07:47:53;;;;;;;;;;;;;;;24.68;53.50;95498.25;5072940;28;1125;-51
2022/06/18 07:50:20;;;;;;;;;;;;;;;24.80;55.31;95490.84;5072692;28;1089;-50
2022/06/18 07:52:46;;;;;;;;;;;;;;;24.52;53.29;95495.19;5072935;28;1999;-50
2022/06/18 07:55:21;;;;;;;;;;;;;;;24.79;57.14;95494.66;5072503;28;1076;-51
2022/06/18 07:57:49;;;;;;;;;;;;;;;25.10;55.36;95495.28;5072916;28;1056;-51
2022/06/18 08:00:16;;;;;;;;;;;;;;;25.02;55.53;95496.47;5072604;28;1025;-51
2022/06/18 08:02:43;;;;;;;;;;;;;;;25.24;55.24;95488.44;5072994;28;964;-50
2022/06/18 08:05:11;;;;;;;;;;;;;;;25.44;53.89;95495.38;5072844;28;1048;-50
2022/06/18 08:07:36;;;;;;;;;;;;;;;25.26;53.51;95489.03;5091322;28;1154;-50
2022/06/18 08:10:03;;;;;;;;;;;;;;;24.89;54.07;95488.56;5093921;28;1032;-50
2022/06/18 08:12:31;;;;;;;;;;;;;;;25.20;54.50;95494.63;5096709;28;1991;-51
2022/06/18 08:14:58;;;;;;;;;;;;;;;25.14;54.22;95491.78;5096516;28;1315;-50
2022/06/18 08:17:25;;;;;;;;;;;;;;;24.66;52.45;95482.09;5096613;28;1032;-50
2022/06/18 08:19:51;;;;;;;;;;;;;;;25.02;53.51;95482.78;5096472;28;1076;-50
2022/06/18 08:22:19;;;;;;;;;;;;;;;25.46;52.51;95482.25;5096735;28;1025;-50
2022/06/18 08:24:46;;;;;;;;;;;;;;;25.32;54.82;95479.84;5096735;28;1134;-50
2022/06/18 08:27:14;;;;;;;;;;;;;;;25.02;52.07;95488.25;5096386;28;1083;-50
2022/06/18 08:29:40;;;;;;;;;;;;;;;24.66;55.44;95484.84;5096321;28;1119;-49
2022/06/18 08:32:06;;;;;;;;;;;;;;;24.31;56.29;95485.69;5096446;28;968;-49
2022/06/18 08:34:32;;;;;;;;;;;;;;;24.58;55.86;95481.63;5096489;28;1983;-50
2022/06/18 08:37:00;;;;;;;;;;;;;;;24.54;56.56;95482.09;5096302;28;1077;-50
2022/06/18 08:39:26;;;;;;;;;;;;;;;24.91;55.81;95486.44;5096284;28;1214;-50
2022/06/18 08:42:04;;;;;;;;;;;;;;;25.38;54.30;95475.28;5096235;28;996;-49
2022/06/18 08:44:36;;;;;;;;;;;;;;;25.75;53.89;95474.84;5096463;28;961;-52
2022/06/18 08:47:02;;;;;;;;;;;;;;;25.80;51.13;95480.41;5096146;28;1104;-49
2022/06/18 08:49:37;;;;;;;;;;;;;;;26.04;52.07;95485.72;5096004;28;1273;-50
2022/06/18 08:52:03;;;;;;;;;;;;;;;26.07;50.55;95482.50;5096109;28;988;-49
2022/06/18 08:54:37;;;;;;;;;;;;;;;25.83;54.05;95479.06;5077877;28;1910;-50
2022/06/18 08:57:15;;;;;;;;;;;;;;;25.78;51.67;95471.59;5096153;28;1020;-50
2022/06/18 09:00:00;;;;;;;;;;;;;;;25.85;53.07;95474.97;5096102;28;962;-51
2022/06/18 09:02:26;;;;;;;;;;;;;;;26.18;52.64;95481.56;5095753;28;960;-49
2022/06/18 09:05:11;;;;;;;;;;;;;;;26.25;50.41;95473.97;5095889;28;996;-49
2022/06/18 09:07:43;;;;;;;;;;;;;;;26.43;49.90;95474.78;5076914;28;1170;-50
2022/06/18 09:10:12;;;;;;;;;;;;;;;26.60;48.84;95475.59;5075695;28;1016;-49
2022/06/18 09:12:42;;;;;;;;;;;;;;;26.68;50.04;95471.56;5075328;28;1906;-50
2022/06/18 09:15:21;;;;;;;;;;;;;;;26.68;49.74;95469.66;5075522;28;1035;-50
2022/06/18 09:18:02;;;;;;;;;;;;;;;26.33;49.52;95461.75;5075142;28;1015;-49
2022/06/18 09:20:32;;;;;;;;;;;;;;;26.26;48.03;95459.19;5074956;28;1178;-50
2022/06/18 09:23:03;;;;;;;;;;;;;;;26.25;50.64;95463.00;5074000;28;1037;-49
2022/06/18 09:25:32;;;;;;;;;;;;;;;26.05;45.48;95458.09;5085901;28;1515;-50
2022/06/18 09:28:03;;;;;;;;;;;;;;;26.17;47.69;95455.22;5075035;28;1052;-50
2022/06/18 09:30:35;;;;;;;;;;;;;;;26.46;49.10;95449.59;5075013;28;1085;-50
2022/06/18 09:33:04;;;;;;;;;;;;;;;26.70;47.33;95450.22;5074831;28;1989;-50
2022/06/18 09:35:40;;;;;;;;;;;;;;;26.86;48.45;95451.22;5074802;28;1028;-50
2022/06/18 09:38:13;;;;;;;;;;;;;;;26.82;48.70;95450.88;5074773;28;1199;-49
2022/06/18 09:40:44;;;;;;;;;;;;;;;26.83;49.03;95455.31;5074798;28;1890;-50
2022/06/18 09:43:30;;;;;;;;;;;;;;;26.94;49.66;95456.25;5074854;28;1053;-50
2022/06/18 09:45:58;;;;;;;;;;;;;;;26.73;47.27;95446.13;5060868;28;1301;-50
2022/06/18 09:48:24;;;;;;;;;;;;;;;26.54;47.04;95454.66;5074671;28;1009;-49
2022/06/18 09:50:56;;;;;;;;;;;;;;;26.59;47.00;95446.50;5074549;28;1072;-52
2022/06/18 09:53:27;;;;;;;;;;;;;;;26.70;46.30;95452.13;5074136;28;1906;-49
2022/06/18 09:55:56;;;;;;;;;;;;;;;26.77;49.32;95458.22;5057069;28;1044;-50
2022/06/18 09:58:25;;;;;;;;;;;;;;;26.82;47.35;95450.88;5074336;28;1009;-50
2022/06/18 10:00:53;;;;;;;;;;;;;;;26.77;48.36;95448.09;5074444;28;967;-49
2022/06/18 10:08:57;;;;;;;;;;;;;;;26.67;44.34;95437.84;5094824;28;1358;-50
2022/06/18 10:11:23;;;;;;;;;;;;;;;26.86;47.31;95443.84;5094515;28;1061;-49
2022/06/18 10:14:03;;;;;;;;;;;;;;;26.95;44.02;95433.22;5094331;28;1907;-50
2022/06/18 10:16:48;;;;;;;;;;;;;;;26.85;46.95;95442.16;5094660;28;990;-49
2022/06/18 10:19:23;;;;;;;;;;;;;;;26.84;45.68;95445.16;5094446;28;1028;-49
2022/06/18 10:21:59;;;;;;;;;;;;;;;26.78;47.31;95436.03;5094403;28;1053;-49
2022/06/18 10:24:51;;;;;;;;;;;;;;;26.61;46.67;95435.28;5094117;28;1028;-49
2022/06/18 10:27:32;;;;;;;;;;;;;;;26.62;47.90;95426.81;5094371;28;1041;-49
2022/06/18 10:30:18;;;;;;;;;;;;;;;26.69;46.99;95429.34;5094408;28;962;-50
2022/06/18 10:33:19;;;;;;;;;;;;;;;26.64;43.13;95427.38;5093578;28;1914;-50
2022/06/18 10:35:51;;;;;;;;;;;;;;;26.57;46.20;95425.88;5012133;28;1304;-48
2022/06/18 10:38:24;;;;;;;;;;;;;;;26.67;45.60;95424.13;5063098;28;1183;-49
2022/06/18 10:40:56;;;;;;;;;;;;;;;26.75;45.26;95430.22;5094048;28;1021;-49
2022/06/18 10:43:25;;;;;;;;;;;;;;;26.68;45.76;95425.78;5093795;28;1181;-48
2022/06/18 10:46:20;;;;;;;;;;;;;;;26.67;47.22;95421.41;5094111;28;971;-48
2022/06/18 10:48:59;;;;;;;;;;;;;;;26.52;47.25;95420.31;5076350;28;1331;-48
2022/06/18 10:51:26;;;;;;;;;;;;;;;26.62;47.16;95418.59;5093829;28;1024;-50
2022/06/18 10:53:55;;;;;;;;;;;;;;;26.67;48.04;95426.88;5093320;28;1997;-51
2022/06/18 10:56:25;;;;;;;;;;;;;;;26.60;48.47;95417.19;5093762;28;1099;-49
2022/06/18 10:58:55;;;;;;;;;;;;;;;26.59;50.13;95430.06;5093774;28;1025;-49
2022/06/18 11:01:45;;;;;;;;;;;;;;;26.56;48.35;95424.22;5093893;28;1015;-50
2022/06/18 11:04:31;;;;;;;;;;;;;;;26.55;47.73;95428.88;5093608;28;1027;-50
2022/06/18 11:07:06;;;;;;;;;;;;;;;26.47;47.15;95421.94;5080423;28;2152;-50
2022/06/18 11:09:34;;;;;;;;;;;;;;;26.42;47.21;95419.09;5073365;28;1558;-50
2022/06/18 11:12:02;;;;;;;;;;;;;;;26.34;46.14;95414.09;5073270;28;1835;-49
2022/06/18 11:14:32;;;;;;;;;;;;;;;26.29;45.64;95424.97;5073191;28;1898;-50
2022/06/18 11:16:58;;;;;;;;;;;;;;;26.25;45.93;95418.34;5073249;28;1034;-50
2022/06/18 11:19:27;;;;;;;;;;;;;;;26.23;44.99;95410.38;5073060;28;1044;-50
2022/06/18 11:21:53;;;;;;;;;;;;;;;26.22;45.54;95400.50;5073479;28;1056;-50
2022/06/18 11:24:19;;;;;;;;;;;;;;;26.30;45.23;95404.72;5072735;28;1033;-50
2022/06/18 11:26:52;;;;;;;;;;;;;;;26.36;44.54;95409.16;5073057;28;965;-49
2022/06/18 11:29:33;;;;;;;;;;;;;;;26.30;45.58;95400.06;5073053;28;981;-49
2022/06/18 11:32:01;;;;;;;;;;;;;;;26.19;45.64;95394.69;5073615;28;1099;-49
2022/06/18 11:34:32;;;;;;;;;;;;;;;26.09;43.23;95396.22;5072827;28;1914;-50
2022/06/18 11:36:59;;;;;;;;;;;;;;;26.09;44.52;95398.94;5073178;28;1025;-49
2022/06/18 11:39:31;;;;;;;;;;;;;;;26.18;43.68;95396.63;5073010;28;1032;-50
2022/06/18 11:42:20;;;;;;;;;;;;;;;26.21;42.91;95400.75;5073163;28;1005;-49
2022/06/18 11:44:52;;;;;;;;;;;;;;;26.20;43.62;95397.19;5073648;28;1127;-50
2022/06/18 11:47:18;;;;;;;;;;;;;;;26.26;42.28;95390.69;5077099;28;1145;-49
2022/06/18 11:49:51;;;;;;;;;;;;;;;26.33;43.18;95392.41;5076736;28;1084;-49
2022/06/18 11:52:17;;;;;;;;;;;;;;;26.36;43.45;95394.66;5077053;28;1025;-50
2022/06/18 11:54:58;;;;;;;;;;;;;;;26.19;42.24;95392.78;5076377;28;2154;-48
2022/06/18 11:57:34;;;;;;;;;;;;;;;26.13;42.25;95403.94;5077080;28;1064;-48
2022/06/18 12:00:30;;;;;;;;;;;;;;;26.01;42.74;95404.03;5076706;28;1863;-48
2022/06/18 12:02:59;;;;;;;;;;;;;;;25.98;42.66;95402.63;5055563;28;1678;-48
2022/06/18 12:05:36;;;;;;;;;;;;;;;26.05;45.56;95407.94;5076943;28;1221;-48
2022/06/18 12:08:03;;;;;;;;;;;;;;;25.97;42.42;95398.25;5097140;28;1017;-49
2022/06/18 12:10:32;;;;;;;;;;;;;;;25.92;42.70;95402.81;5096968;28;979;-48
2022/06/18 12:13:08;;;;;;;;;;;;;;;26.03;42.90;95419.16;5096935;28;1906;-48
2022/06/18 12:15:41;;;;;;;;;;;;;;;26.02;43.39;95414.75;5096606;28;1925;-49
2022/06/18 12:18:07;;;;;;;;;;;;;;;26.07;43.52;95408.53;5096438;28;977;-49
2022/06/18 12:20:33;;;;;;;;;;;;;;;26.14;46.63;95409.13;5096709;28;1057;-50
2022/06/18 12:23:02;;;;;;;;;;;;;;;26.21;44.32;95401.56;5096675;28;1088;-50
2022/06/18 12:25:28;;;;;;;;;;;;;;;26.14;43.37;95403.66;5096245;28;1021;-50
2022/06/18 12:28:01;;;;;;;;;;;;;;;26.23;43.08;95404.06;5096544;28;1021;-55
2022/06/18 12:30:32;;;;;;;;;;;;;;;26.33;44.35;95397.88;5096658;28;1060;-51
2022/06/18 12:33:07;;;;;;;;;;;;;;;26.40;45.52;95398.53;5096572;28;1988;-51
2022/06/18 12:35:56;;;;;;;;;;;;;;;26.29;44.22;95403.91;5096345;28;1028;-51
2022/06/18 12:38:46;;;;;;;;;;;;;;;26.27;46.18;95397.00;5085460;28;1300;-51
2022/06/18 12:41:38;;;;;;;;;;;;;;;26.19;45.23;95395.53;5096257;28;1034;-51
2022/06/18 12:44:07;;;;;;;;;;;;;;;26.30;46.52;95411.03;5095896;28;1088;-50
2022/06/18 12:46:41;;;;;;;;;;;;;;;26.30;45.23;95408.28;5095846;28;981;-51
2022/06/18 12:49:28;;;;;;;;;;;;;;;26.19;46.80;95406.47;5095821;28;1115;-51
2022/06/18 12:52:01;;;;;;;;;;;;;;;26.06;47.82;95410.41;5096103;28;1036;-51
2022/06/18 12:54:39;;;;;;;;;;;;;;;26.02;49.03;95413.91;5095518;28;1980;-50
2022/06/18 12:57:23;;;;;;;;;;;;;;;25.98;47.59;95418.25;5095640;28;1045;-50
2022/06/18 12:59:56;;;;;;;;;;;;;;;25.81;47.87;95413.56;5095990;28;1060;-50
2022/06/18 13:02:25;;;;;;;;;;;;;;;25.95;48.84;95407.78;5096049;28;950;-50
2022/06/18 13:05:11;;;;;;;;;;;;;;;25.89;49.40;95404.94;5095650;28;1045;-51
2022/06/18 13:07:40;;;;;;;;;;;;;;;25.84;47.62;95404.88;5076912;28;1217;-51
2022/06/18 13:10:12;;;;;;;;;;;;;;;25.88;45.73;95402.47;5075562;28;1032;-50
2022/06/18 13:12:57;;;;;;;;;;;;;;;25.88;45.15;95405.19;5075480;28;1909;-51
2022/06/18 13:15:37;;;;;;;;;;;;;;;25.75;45.50;95402.81;5075249;28;970;-51
2022/06/18 13:18:15;;;;;;;;;;;;;;;25.73;46.55;95399.50;5075411;28;1037;-50
2022/06/18 13:20:42;;;;;;;;;;;;;;;25.63;44.90;95405.63;5075283;28;963;-50
2022/06/18 13:29:08;;;;;;;;;;;;;;;25.57;46.05;95398.41;5013215;28;1284;-50
2022/06/18 13:31:44;;;;;;;;;;;;;;;25.44;46.59;95403.16;5066678;28;1076;-50
2022/06/18 13:34:29;;;;;;;;;;;;;;;25.41;48.63;95391.88;5074943;28;1906;-51
2022/06/18 13:37:03;;;;;;;;;;;;;;;25.52;48.42;95386.31;5074849;28;1009;-50
2022/06/18 13:39:38;;;;;;;;;;;;;;;25.58;48.08;95386.41;5074797;28;1084;-51